Elandra Spruce — V7JM5 — position and weather

sailwx.info

Track history (hours):
 
Tides and Currents Weather Stations Pressure Air Temp Water Temp Dewpoint Dewpoint Depression Visibility Wind Speed Wind Dir Waves Ship Positions

Elandra Spruce

Last reported at 2016-Dec-06 05:33 UTC. Time now 2016-Dec-07 16:24 UTC.
Position N 40°33' W 074°15'.

Length 183 m; draft 10.8 m.

Type: Tanker. MMSI: 538006719.

Date/timePositionNaut miles runAvg speedWind from/ knotsBaromVisibWave heightAir tempDewpointWater temp
2016-Dec-06 05:33N 40°33' W 074°15'4 3.4
2016-Dec-06 04:30N 40°30' W 074°11'8 8.5
2016-Dec-06 03:33N 40°29' W 074°01'5 4.7
2016-Dec-06 02:33N 40°29' W 073°55'9 8.9
2016-Dec-06 01:33N 40°36' W 074°03'2 1.9
2016-Dec-06 00:32N 40°38' W 074°03'0 0.0
2016-Dec-05 23:32N 40°38' W 074°03'0 0.0
2016-Dec-05 22:32N 40°38' W 074°03'0 0.0
2016-Dec-05 21:32N 40°38' W 074°03'0 0.0
2016-Dec-05 20:32N 40°38' W 074°03'0 0.0
2016-Dec-05 19:32N 40°38' W 074°03'0 0.2
2016-Dec-05 18:32N 40°38' W 074°03'0 0.1
2016-Dec-05 17:32N 40°38' W 074°03'0 0.0
2016-Dec-05 16:32N 40°38' W 074°03'0 0.3
2016-Dec-05 15:34N 40°38' W 074°03'8 8.3
2016-Dec-05 14:33N 40°31' W 073°58'10 9.4
2016-Dec-05 13:32N 40°27' W 073°47'  
Track history (hours):
 
Tides and Currents Weather Stations Pressure Air Temp Water Temp Dewpoint Dewpoint Depression Visibility Wind Speed Wind Dir Waves Ship Positions

Elandra Spruce

Last reported at 2016-Dec-06 05:33 UTC. Time now 2016-Dec-07 16:24 UTC.
Position N 40°33' W 074°15'.

Length 183 m; draft 10.8 m.

Type: Tanker. MMSI: 538006719.

Date/timePositionNaut miles runAvg speedWind from/ knotsBaromVisibWave heightAir tempDewpointWater temp
2016-Dec-06 05:33N 40°33' W 074°15'4 3.4
2016-Dec-06 04:30N 40°30' W 074°11'8 8.5
2016-Dec-06 03:33N 40°29' W 074°01'5 4.7
2016-Dec-06 02:33N 40°29' W 073°55'9 8.9
2016-Dec-06 01:33N 40°36' W 074°03'2 1.9
2016-Dec-06 00:32N 40°38' W 074°03'0 0.0
2016-Dec-05 23:32N 40°38' W 074°03'0 0.0
2016-Dec-05 22:32N 40°38' W 074°03'0 0.0
2016-Dec-05 21:32N 40°38' W 074°03'0 0.0
2016-Dec-05 20:32N 40°38' W 074°03'0 0.0
2016-Dec-05 19:32N 40°38' W 074°03'0 0.2
2016-Dec-05 18:32N 40°38' W 074°03'0 0.1
2016-Dec-05 17:32N 40°38' W 074°03'0 0.0
2016-Dec-05 16:32N 40°38' W 074°03'0 0.3
2016-Dec-05 15:34N 40°38' W 074°03'8 8.3
2016-Dec-05 14:33N 40°31' W 073°58'10 9.4
2016-Dec-05 13:32N 40°27' W 073°47'  

Dump ship's entire track history